Yamashiro Maru — JD3274 — position and weather

sailwx.info

Track history (hours):
 
Tides and Currents Weather Stations Pressure Air Temp Water Temp Dewpoint Dewpoint Depression Visibility Wind Speed Wind Dir Waves Ship Positions

Yamashiro Maru

Last reported at 2018-Feb-20 03:58 UTC. Time now 2018-Feb-20 04:18 UTC.
Position N 34°38' E 135°28'.

Length 57 m; draft 8.3 m.

Type: Cargo ship. MMSI: 431003028.

Date/timePositionNaut miles runAvg speedWind from/ knotsBaromVisibWave heightAir tempDewpointWater temp
2018-Feb-20 03:58N 34°38' E 135°28'0 0.0
2018-Feb-20 03:22N 34°38' E 135°28'0 0.0
2018-Feb-20 02:58N 34°38' E 135°28'0 0.0
2018-Feb-20 02:28N 34°38' E 135°28'0 0.0
2018-Feb-20 01:58N 34°38' E 135°28'0 0.0
2018-Feb-20 01:29N 34°38' E 135°28'0 0.0
2018-Feb-20 00:58N 34°38' E 135°28'0 0.0
2018-Feb-20 00:28N 34°38' E 135°28'0 0.0
2018-Feb-20 00:00N 34°38' E 135°28'0 0.0
2018-Feb-19 23:29N 34°38' E 135°28'0 0.0
2018-Feb-19 22:58N 34°38' E 135°28'0 0.0
2018-Feb-19 22:28N 34°38' E 135°28'1 1.3
2018-Feb-19 22:00N 34°39' E 135°27'510.0
2018-Feb-19 21:30N 34°37' E 135°21'510.3
2018-Feb-19 21:00N 34°36' E 135°15'510.8
2018-Feb-19 20:30N 34°35' E 135°09'612.3
2018-Feb-19 20:00N 34°37' E 135°02'613.0
2018-Feb-19 19:30N 34°35' E 134°54'612.5
2018-Feb-19 19:00N 34°32' E 134°47'611.4
2018-Feb-19 18:29N 34°30' E 134°41'611.0
2018-Feb-19 17:59N 34°28' E 134°34'98 9.8
2018-Feb-19 07:56N 34°10' E 132°37'4 9.6
2018-Feb-19 07:30N 34°12' E 132°32'2 3.7
2018-Feb-19 06:59N 34°14' E 132°33'0 0.0
2018-Feb-19 06:29N 34°14' E 132°33'0 0.0
2018-Feb-19 05:56N 34°14' E 132°33'0 0.0
2018-Feb-19 05:29N 34°14' E 132°33'0 0.0
2018-Feb-19 04:59N 34°14' E 132°33'0 0.0
2018-Feb-19 04:29N 34°14' E 132°33'0 0.0
2018-Feb-19 03:59N 34°14' E 132°33'0 0.0
2018-Feb-19 03:26N 34°14' E 132°33'0 0.0
2018-Feb-19 02:59N 34°14' E 132°33'0 0.0
2018-Feb-19 02:26N 34°14' E 132°33'0 0.0
2018-Feb-19 01:59N 34°14' E 132°33'0 0.0
2018-Feb-19 01:23N 34°14' E 132°33'0 0.0
2018-Feb-19 00:53N 34°14' E 132°33'0 0.0
2018-Feb-19 00:26N 34°14' E 132°33'0 0.0
2018-Feb-18 23:59N 34°14' E 132°33'0 0.0
2018-Feb-18 23:26N 34°14' E 132°33'0 0.0
2018-Feb-18 22:59N 34°14' E 132°33'0 0.0
2018-Feb-18 22:29N 34°14' E 132°33'0 0.0
2018-Feb-18 21:56N 34°14' E 132°33'0 0.0
2018-Feb-18 21:24N 34°14' E 132°33'3 8.3
2018-Feb-18 21:00N 34°11' E 132°30'  
2018-Feb-16 16:53N 34°08' E 132°30'45 9.3
2018-Feb-16 12:04N 33°48' E 131°41'110.7
2018-Feb-16 12:00N 33°48' E 131°41'510.7
2018-Feb-16 11:30N 33°49' E 131°34'510.7
2018-Feb-16 11:00N 33°51' E 131°28'510.4
2018-Feb-16 10:30N 33°51' E 131°22'510.2
2018-Feb-16 09:59N 33°52' E 131°16'510.1
2018-Feb-16 09:30N 33°54' E 131°10'510.4
2018-Feb-16 09:00N 33°57' E 131°05'510.8
2018-Feb-16 08:30N 33°58' E 130°58'510.7
2018-Feb-16 08:00N 33°55' E 130°54'2 3.2
2018-Feb-16 07:29N 33°55' E 130°52'0 0.0
2018-Feb-16 06:59N 33°55' E 130°52'0 0.0
2018-Feb-16 06:29N 33°55' E 130°52'0 0.0
2018-Feb-16 05:59N 33°55' E 130°52'1 1.9
2018-Feb-16 05:28N 33°55' E 130°53'3 6.2
2018-Feb-16 04:54N 33°55' E 130°48'0 0.0
2018-Feb-16 04:30N 33°55' E 130°48'0 0.0
2018-Feb-16 04:00N 33°55' E 130°48'0 0.0
2018-Feb-16 03:30N 33°55' E 130°48'0 0.0
2018-Feb-16 03:00N 33°55' E 130°48'0 0.0
2018-Feb-16 02:30N 33°55' E 130°48'0 0.0
2018-Feb-16 01:57N 33°55' E 130°48'0 0.0
2018-Feb-16 01:30N 33°55' E 130°48'0 0.0
2018-Feb-16 01:00N 33°55' E 130°48'0 0.0
2018-Feb-16 00:30N 33°55' E 130°48'0 0.0
2018-Feb-16 00:00N 33°55' E 130°48'0 0.0
2018-Feb-15 23:28N 33°55' E 130°48'1 1.5
2018-Feb-15 23:00N 33°55' E 130°49'5 9.2
2018-Feb-15 22:30N 33°54' E 130°55'510.6
2018-Feb-15 22:00N 33°58' E 130°59'4 7.9
2018-Feb-15 21:29N 33°58' E 131°04'0 0.1
2018-Feb-15 21:00N 33°58' E 131°04'0 0.1
2018-Feb-15 20:30N 33°58' E 131°04'0 0.0
2018-Feb-15 20:00N 33°58' E 131°04'0 0.0
2018-Feb-15 19:30N 33°58' E 131°04'0 0.0
2018-Feb-15 19:00N 33°58' E 131°04'0 0.0
2018-Feb-15 18:30N 33°58' E 131°04'0 0.0
2018-Feb-15 18:00N 33°58' E 131°04'0 0.0
2018-Feb-15 17:30N 33°58' E 131°04'0 0.0
2018-Feb-15 16:58N 33°58' E 131°04'4 8.1
2018-Feb-15 16:30N 33°55' E 131°07'5 9.7
2018-Feb-15 16:00N 33°53' E 131°12'5 9.5
2018-Feb-15 15:30N 33°52' E 131°18'510.1
2018-Feb-15 15:00N 33°51' E 131°24'510.0
2018-Feb-15 14:30N 33°50' E 131°30'5 9.8
2018-Feb-15 14:00N 33°49' E 131°36'6 9.9
2018-Feb-15 13:26N 33°48' E 131°42'44 8.7
2018-Feb-15 08:23N 34°08' E 132°29'4 9.1
2018-Feb-15 07:58N 34°12' E 132°30'3 5.1
2018-Feb-15 07:28N 34°14' E 132°33'0 0.0
2018-Feb-15 06:55N 34°14' E 132°33'0 0.0
2018-Feb-15 06:25N 34°14' E 132°33'0 0.0
2018-Feb-15 05:58N 34°14' E 132°33'0 0.0
2018-Feb-15 05:25N 34°14' E 132°33'0 0.0
2018-Feb-15 04:58N 34°14' E 132°33'0 0.0
2018-Feb-15 04:28N 34°14' E 132°33'0 0.0
2018-Feb-15 03:58N 34°14' E 132°33'0 0.0
2018-Feb-15 03:28N 34°14' E 132°33'0 0.0
2018-Feb-15 02:58N 34°14' E 132°33'0 0.0
2018-Feb-15 02:28N 34°14' E 132°33'0 0.0
2018-Feb-15 01:58N 34°14' E 132°33'0 0.0
2018-Feb-15 01:28N 34°14' E 132°33'0 0.0
2018-Feb-15 00:52N 34°14' E 132°33'0 0.0
2018-Feb-15 00:28N 34°14' E 132°33'0 0.0
2018-Feb-14 23:58N 34°14' E 132°33'0 0.0
2018-Feb-14 23:28N 34°14' E 132°33'0 0.0
2018-Feb-14 22:58N 34°14' E 132°33'0 0.0
2018-Feb-14 22:28N 34°14' E 132°33'0 0.0
2018-Feb-14 21:59N 34°14' E 132°33'0 0.0
2018-Feb-14 21:29N 34°14' E 132°33'0 0.0
2018-Feb-14 20:59N 34°14' E 132°33'0 0.0
2018-Feb-14 20:29N 34°14' E 132°33'0 0.0
2018-Feb-14 19:59N 34°14' E 132°33'0 0.0
2018-Feb-14 19:29N 34°14' E 132°33'0 0.0
2018-Feb-14 18:59N 34°14' E 132°33'0 0.0
2018-Feb-14 18:29N 34°14' E 132°33'0 0.0
2018-Feb-14 17:59N 34°14' E 132°33'0 0.0
2018-Feb-14 17:29N 34°14' E 132°33'0 0.0
2018-Feb-14 16:59N 34°14' E 132°33'0 0.0
2018-Feb-14 16:29N 34°14' E 132°33'0 0.0
2018-Feb-14 15:59N 34°14' E 132°33'0 0.0
2018-Feb-14 15:29N 34°14' E 132°33'0 0.0
2018-Feb-14 14:59N 34°14' E 132°33'0 0.0
2018-Feb-14 14:29N 34°14' E 132°33'0 0.0
2018-Feb-14 13:59N 34°14' E 132°33'0 0.0
2018-Feb-14 13:25N 34°14' E 132°33'0 0.1
2018-Feb-14 13:00N 34°14' E 132°33'4 8.6
2018-Feb-14 12:30N 34°10' E 132°29'6 9.4
2018-Feb-14 11:54N 34°06' E 132°25'711.0
2018-Feb-14 11:14N 34°02' E 132°17'30 9.3
2018-Feb-14 07:57N 33°47' E 131°45'510.3
2018-Feb-14 07:29N 33°48' E 131°40'510.4
2018-Feb-14 06:58N 33°50' E 131°34'510.6
2018-Feb-14 06:30N 33°50' E 131°28'510.6
2018-Feb-14 06:00N 33°51' E 131°21'510.8
2018-Feb-14 05:30N 33°52' E 131°15'611.1
2018-Feb-14 05:00N 33°55' E 131°09'611.1
2018-Feb-14 04:29N 33°57' E 131°03'5 9.6
2018-Feb-14 04:00N 33°58' E 130°57'4 8.2
2018-Feb-14 03:30N 33°54' E 130°55'1 2.7
2018-Feb-14 02:59N 33°54' E 130°53'0 0.0
2018-Feb-14 02:29N 33°54' E 130°53'0 0.1
2018-Feb-14 01:59N 33°54' E 130°53'0 0.0
2018-Feb-14 01:29N 33°54' E 130°53'0 0.0
2018-Feb-14 00:59N 33°54' E 130°53'0 0.1
2018-Feb-14 00:29N 33°54' E 130°53'0 0.0
2018-Feb-13 23:59N 33°54' E 130°53'0 0.0
2018-Feb-13 23:29N 33°54' E 130°53'2 3.6
2018-Feb-13 23:00N 33°56' E 130°53'0 0.0
2018-Feb-13 22:29N 33°56' E 130°53'0 0.0
2018-Feb-13 21:58N 33°56' E 130°53'0 0.0
2018-Feb-13 21:30N 33°56' E 130°53'0 0.1
2018-Feb-13 21:00N 33°56' E 130°53'0 0.4
2018-Feb-13 20:30N 33°56' E 130°53'2 5.1
2018-Feb-13 20:00N 33°56' E 130°56'4 7.8
2018-Feb-13 19:30N 33°59' E 131°00'510.9
2018-Feb-13 19:00N 33°56' E 131°06'611.1
2018-Feb-13 18:29N 33°53' E 131°12'511.1
2018-Feb-13 18:00N 33°52' E 131°18'611.1
2018-Feb-13 17:30N 33°51' E 131°25'510.9
2018-Feb-13 17:01N 33°50' E 131°31'510.7
2018-Feb-13 16:31N 33°49' E 131°38'47 9.5
2018-Feb-13 11:32N 34°09' E 132°30'111.6
2018-Feb-13 11:29N 34°09' E 132°30'510.2
2018-Feb-13 11:00N 34°14' E 132°32'1 1.0
2018-Feb-13 10:26N 34°14' E 132°33'0 0.0
2018-Feb-13 09:59N 34°14' E 132°33'0 0.0
2018-Feb-13 09:29N 34°14' E 132°33'0 0.0
2018-Feb-13 08:59N 34°14' E 132°33'0 0.0
2018-Feb-13 08:26N 34°14' E 132°33'0 0.0
2018-Feb-13 07:59N 34°14' E 132°33'0 0.0
2018-Feb-13 07:26N 34°14' E 132°33'0 0.0
2018-Feb-13 06:59N 34°14' E 132°33'0 0.0
2018-Feb-13 06:29N 34°14' E 132°33'0 0.0
2018-Feb-13 05:59N 34°14' E 132°33'1 1.0
2018-Feb-13 05:29N 34°14' E 132°32'0 0.0
2018-Feb-13 04:59N 34°14' E 132°32'0 0.0
2018-Feb-13 04:20N 34°14' E 132°32'0 0.0
2018-Feb-13 03:52N 34°14' E 132°32'0 0.0
2018-Feb-13 03:28N 34°14' E 132°32'0 0.0
2018-Feb-13 03:00N 34°14' E 132°32'2 4.7
2018-Feb-13 02:30N 34°12' E 132°31'  
2018-Feb-10 05:06N 34°09' E 132°30'210.4
2018-Feb-10 04:56N 34°10' E 132°29'3 6.8
2018-Feb-10 04:29N 34°11' E 132°33'  
Track history (hours):
 
Tides and Currents Weather Stations Pressure Air Temp Water Temp Dewpoint Dewpoint Depression Visibility Wind Speed Wind Dir Waves Ship Positions

Yamashiro Maru

Last reported at 2018-Feb-20 03:58 UTC. Time now 2018-Feb-20 04:18 UTC.
Position N 34°38' E 135°28'.

Length 57 m; draft 8.3 m.

Type: Cargo ship. MMSI: 431003028.

Date/timePositionNaut miles runAvg speedWind from/ knotsBaromVisibWave heightAir tempDewpointWater temp
2018-Feb-20 03:58N 34°38' E 135°28'0 0.0
2018-Feb-20 03:22N 34°38' E 135°28'0 0.0
2018-Feb-20 02:58N 34°38' E 135°28'0 0.0
2018-Feb-20 02:28N 34°38' E 135°28'0 0.0
2018-Feb-20 01:58N 34°38' E 135°28'0 0.0
2018-Feb-20 01:29N 34°38' E 135°28'0 0.0
2018-Feb-20 00:58N 34°38' E 135°28'0 0.0
2018-Feb-20 00:28N 34°38' E 135°28'0 0.0
2018-Feb-20 00:00N 34°38' E 135°28'0 0.0
2018-Feb-19 23:29N 34°38' E 135°28'0 0.0
2018-Feb-19 22:58N 34°38' E 135°28'0 0.0
2018-Feb-19 22:28N 34°38' E 135°28'1 1.3
2018-Feb-19 22:00N 34°39' E 135°27'510.0
2018-Feb-19 21:30N 34°37' E 135°21'510.3
2018-Feb-19 21:00N 34°36' E 135°15'510.8
2018-Feb-19 20:30N 34°35' E 135°09'612.3
2018-Feb-19 20:00N 34°37' E 135°02'613.0
2018-Feb-19 19:30N 34°35' E 134°54'612.5
2018-Feb-19 19:00N 34°32' E 134°47'611.4
2018-Feb-19 18:29N 34°30' E 134°41'611.0
2018-Feb-19 17:59N 34°28' E 134°34'98 9.8
2018-Feb-19 07:56N 34°10' E 132°37'4 9.6
2018-Feb-19 07:30N 34°12' E 132°32'2 3.7
2018-Feb-19 06:59N 34°14' E 132°33'0 0.0
2018-Feb-19 06:29N 34°14' E 132°33'0 0.0
2018-Feb-19 05:56N 34°14' E 132°33'0 0.0
2018-Feb-19 05:29N 34°14' E 132°33'0 0.0
2018-Feb-19 04:59N 34°14' E 132°33'0 0.0
2018-Feb-19 04:29N 34°14' E 132°33'0 0.0
2018-Feb-19 03:59N 34°14' E 132°33'0 0.0
2018-Feb-19 03:26N 34°14' E 132°33'0 0.0
2018-Feb-19 02:59N 34°14' E 132°33'0 0.0
2018-Feb-19 02:26N 34°14' E 132°33'0 0.0
2018-Feb-19 01:59N 34°14' E 132°33'0 0.0
2018-Feb-19 01:23N 34°14' E 132°33'0 0.0
2018-Feb-19 00:53N 34°14' E 132°33'0 0.0
2018-Feb-19 00:26N 34°14' E 132°33'0 0.0
2018-Feb-18 23:59N 34°14' E 132°33'0 0.0
2018-Feb-18 23:26N 34°14' E 132°33'0 0.0
2018-Feb-18 22:59N 34°14' E 132°33'0 0.0
2018-Feb-18 22:29N 34°14' E 132°33'0 0.0
2018-Feb-18 21:56N 34°14' E 132°33'0 0.0
2018-Feb-18 21:24N 34°14' E 132°33'3 8.3
2018-Feb-18 21:00N 34°11' E 132°30'  
2018-Feb-16 16:53N 34°08' E 132°30'45 9.3
2018-Feb-16 12:04N 33°48' E 131°41'110.7
2018-Feb-16 12:00N 33°48' E 131°41'510.7
2018-Feb-16 11:30N 33°49' E 131°34'510.7
2018-Feb-16 11:00N 33°51' E 131°28'510.4
2018-Feb-16 10:30N 33°51' E 131°22'510.2
2018-Feb-16 09:59N 33°52' E 131°16'510.1
2018-Feb-16 09:30N 33°54' E 131°10'510.4
2018-Feb-16 09:00N 33°57' E 131°05'510.8
2018-Feb-16 08:30N 33°58' E 130°58'510.7
2018-Feb-16 08:00N 33°55' E 130°54'2 3.2
2018-Feb-16 07:29N 33°55' E 130°52'0 0.0
2018-Feb-16 06:59N 33°55' E 130°52'0 0.0
2018-Feb-16 06:29N 33°55' E 130°52'0 0.0
2018-Feb-16 05:59N 33°55' E 130°52'1 1.9
2018-Feb-16 05:28N 33°55' E 130°53'3 6.2
2018-Feb-16 04:54N 33°55' E 130°48'0 0.0
2018-Feb-16 04:30N 33°55' E 130°48'0 0.0
2018-Feb-16 04:00N 33°55' E 130°48'0 0.0
2018-Feb-16 03:30N 33°55' E 130°48'0 0.0
2018-Feb-16 03:00N 33°55' E 130°48'0 0.0
2018-Feb-16 02:30N 33°55' E 130°48'0 0.0
2018-Feb-16 01:57N 33°55' E 130°48'0 0.0
2018-Feb-16 01:30N 33°55' E 130°48'0 0.0
2018-Feb-16 01:00N 33°55' E 130°48'0 0.0
2018-Feb-16 00:30N 33°55' E 130°48'0 0.0
2018-Feb-16 00:00N 33°55' E 130°48'0 0.0
2018-Feb-15 23:28N 33°55' E 130°48'1 1.5
2018-Feb-15 23:00N 33°55' E 130°49'5 9.2
2018-Feb-15 22:30N 33°54' E 130°55'510.6
2018-Feb-15 22:00N 33°58' E 130°59'4 7.9
2018-Feb-15 21:29N 33°58' E 131°04'0 0.1
2018-Feb-15 21:00N 33°58' E 131°04'0 0.1
2018-Feb-15 20:30N 33°58' E 131°04'0 0.0
2018-Feb-15 20:00N 33°58' E 131°04'0 0.0
2018-Feb-15 19:30N 33°58' E 131°04'0 0.0
2018-Feb-15 19:00N 33°58' E 131°04'0 0.0
2018-Feb-15 18:30N 33°58' E 131°04'0 0.0
2018-Feb-15 18:00N 33°58' E 131°04'0 0.0
2018-Feb-15 17:30N 33°58' E 131°04'0 0.0
2018-Feb-15 16:58N 33°58' E 131°04'4 8.1
2018-Feb-15 16:30N 33°55' E 131°07'5 9.7
2018-Feb-15 16:00N 33°53' E 131°12'5 9.5
2018-Feb-15 15:30N 33°52' E 131°18'510.1
2018-Feb-15 15:00N 33°51' E 131°24'510.0
2018-Feb-15 14:30N 33°50' E 131°30'5 9.8
2018-Feb-15 14:00N 33°49' E 131°36'6 9.9
2018-Feb-15 13:26N 33°48' E 131°42'44 8.7
2018-Feb-15 08:23N 34°08' E 132°29'4 9.1
2018-Feb-15 07:58N 34°12' E 132°30'3 5.1
2018-Feb-15 07:28N 34°14' E 132°33'0 0.0
2018-Feb-15 06:55N 34°14' E 132°33'0 0.0
2018-Feb-15 06:25N 34°14' E 132°33'0 0.0
2018-Feb-15 05:58N 34°14' E 132°33'0 0.0
2018-Feb-15 05:25N 34°14' E 132°33'0 0.0
2018-Feb-15 04:58N 34°14' E 132°33'0 0.0
2018-Feb-15 04:28N 34°14' E 132°33'0 0.0
2018-Feb-15 03:58N 34°14' E 132°33'0 0.0
2018-Feb-15 03:28N 34°14' E 132°33'0 0.0
2018-Feb-15 02:58N 34°14' E 132°33'0 0.0
2018-Feb-15 02:28N 34°14' E 132°33'0 0.0
2018-Feb-15 01:58N 34°14' E 132°33'0 0.0
2018-Feb-15 01:28N 34°14' E 132°33'0 0.0
2018-Feb-15 00:52N 34°14' E 132°33'0 0.0
2018-Feb-15 00:28N 34°14' E 132°33'0 0.0
2018-Feb-14 23:58N 34°14' E 132°33'0 0.0
2018-Feb-14 23:28N 34°14' E 132°33'0 0.0
2018-Feb-14 22:58N 34°14' E 132°33'0 0.0
2018-Feb-14 22:28N 34°14' E 132°33'0 0.0
2018-Feb-14 21:59N 34°14' E 132°33'0 0.0
2018-Feb-14 21:29N 34°14' E 132°33'0 0.0
2018-Feb-14 20:59N 34°14' E 132°33'0 0.0
2018-Feb-14 20:29N 34°14' E 132°33'0 0.0
2018-Feb-14 19:59N 34°14' E 132°33'0 0.0
2018-Feb-14 19:29N 34°14' E 132°33'0 0.0
2018-Feb-14 18:59N 34°14' E 132°33'0 0.0
2018-Feb-14 18:29N 34°14' E 132°33'0 0.0
2018-Feb-14 17:59N 34°14' E 132°33'0 0.0
2018-Feb-14 17:29N 34°14' E 132°33'0 0.0
2018-Feb-14 16:59N 34°14' E 132°33'0 0.0
2018-Feb-14 16:29N 34°14' E 132°33'0 0.0
2018-Feb-14 15:59N 34°14' E 132°33'0 0.0
2018-Feb-14 15:29N 34°14' E 132°33'0 0.0
2018-Feb-14 14:59N 34°14' E 132°33'0 0.0
2018-Feb-14 14:29N 34°14' E 132°33'0 0.0
2018-Feb-14 13:59N 34°14' E 132°33'0 0.0
2018-Feb-14 13:25N 34°14' E 132°33'0 0.1
2018-Feb-14 13:00N 34°14' E 132°33'4 8.6
2018-Feb-14 12:30N 34°10' E 132°29'6 9.4
2018-Feb-14 11:54N 34°06' E 132°25'711.0
2018-Feb-14 11:14N 34°02' E 132°17'30 9.3
2018-Feb-14 07:57N 33°47' E 131°45'510.3
2018-Feb-14 07:29N 33°48' E 131°40'510.4
2018-Feb-14 06:58N 33°50' E 131°34'510.6
2018-Feb-14 06:30N 33°50' E 131°28'510.6
2018-Feb-14 06:00N 33°51' E 131°21'510.8
2018-Feb-14 05:30N 33°52' E 131°15'611.1
2018-Feb-14 05:00N 33°55' E 131°09'611.1
2018-Feb-14 04:29N 33°57' E 131°03'5 9.6
2018-Feb-14 04:00N 33°58' E 130°57'4 8.2
2018-Feb-14 03:30N 33°54' E 130°55'1 2.7
2018-Feb-14 02:59N 33°54' E 130°53'0 0.0
2018-Feb-14 02:29N 33°54' E 130°53'0 0.1
2018-Feb-14 01:59N 33°54' E 130°53'0 0.0
2018-Feb-14 01:29N 33°54' E 130°53'0 0.0
2018-Feb-14 00:59N 33°54' E 130°53'0 0.1
2018-Feb-14 00:29N 33°54' E 130°53'0 0.0
2018-Feb-13 23:59N 33°54' E 130°53'0 0.0
2018-Feb-13 23:29N 33°54' E 130°53'2 3.6
2018-Feb-13 23:00N 33°56' E 130°53'0 0.0
2018-Feb-13 22:29N 33°56' E 130°53'0 0.0
2018-Feb-13 21:58N 33°56' E 130°53'0 0.0
2018-Feb-13 21:30N 33°56' E 130°53'0 0.1
2018-Feb-13 21:00N 33°56' E 130°53'0 0.4
2018-Feb-13 20:30N 33°56' E 130°53'2 5.1
2018-Feb-13 20:00N 33°56' E 130°56'4 7.8
2018-Feb-13 19:30N 33°59' E 131°00'510.9
2018-Feb-13 19:00N 33°56' E 131°06'611.1
2018-Feb-13 18:29N 33°53' E 131°12'511.1
2018-Feb-13 18:00N 33°52' E 131°18'611.1
2018-Feb-13 17:30N 33°51' E 131°25'510.9
2018-Feb-13 17:01N 33°50' E 131°31'510.7
2018-Feb-13 16:31N 33°49' E 131°38'47 9.5
2018-Feb-13 11:32N 34°09' E 132°30'111.6
2018-Feb-13 11:29N 34°09' E 132°30'510.2
2018-Feb-13 11:00N 34°14' E 132°32'1 1.0
2018-Feb-13 10:26N 34°14' E 132°33'0 0.0
2018-Feb-13 09:59N 34°14' E 132°33'0 0.0
2018-Feb-13 09:29N 34°14' E 132°33'0 0.0
2018-Feb-13 08:59N 34°14' E 132°33'0 0.0
2018-Feb-13 08:26N 34°14' E 132°33'0 0.0
2018-Feb-13 07:59N 34°14' E 132°33'0 0.0
2018-Feb-13 07:26N 34°14' E 132°33'0 0.0
2018-Feb-13 06:59N 34°14' E 132°33'0 0.0
2018-Feb-13 06:29N 34°14' E 132°33'0 0.0
2018-Feb-13 05:59N 34°14' E 132°33'1 1.0
2018-Feb-13 05:29N 34°14' E 132°32'0 0.0
2018-Feb-13 04:59N 34°14' E 132°32'0 0.0
2018-Feb-13 04:20N 34°14' E 132°32'0 0.0
2018-Feb-13 03:52N 34°14' E 132°32'0 0.0
2018-Feb-13 03:28N 34°14' E 132°32'0 0.0
2018-Feb-13 03:00N 34°14' E 132°32'2 4.7
2018-Feb-13 02:30N 34°12' E 132°31'  
2018-Feb-10 05:06N 34°09' E 132°30'210.4
2018-Feb-10 04:56N 34°10' E 132°29'3 6.8
2018-Feb-10 04:29N 34°11' E 132°33'  

Dump ship's entire track history